Inglefield, IN

3:54 AM CDT on October 25, 2014 (GMT -0500)
Clear Creek Subdivision | Change Station
CLOSE
Current Station
Personal Weather Station
Location: Evansville, IN
Elevation: 442 ft
Nearby Weather Stations

Elev 442 ft 38.06 °N, 87.56 °W | Updated 24 minutes ago

Overcast
Overcast
55.6 °F
Feels Like 55.6 °F
N
0.0
Wind Variable Wind from SW
Gusts 1.0 mph

Today
High -- | Low -- °F
--% Chance of Precip.
Yesterday
High -- | Low -- °F
Precip. -- in
7:08 AM 5:59 PM
New Moon, 2% visible
Pressure 30.03 in
Visibility 7.0 miles
Clouds Overcast 4700 ft
Dew Point 52 °F
Humidity 88%
Rainfall 0.00 in
Snow Depth Not available.
UV 0 out of 12
Pollen 1.90 out of 12
Ozone Good
PM2.5 Moderate
Flu Activity Sporadic
METAR KEVV 250754Z AUTO 22004KT 7SM OVC047 13/12 A3003 RMK AO2 SLP168 T01330117

More Conditions Fewer Conditions

Pressure 30.03 in
Visibility 7.0 miles
Clouds Overcast 4700 ft
Dew Point 52 °F
Humidity 88%
Rainfall 0.00 in
Snow Depth Not available.
UV 0 out of 12
Pollen 1.90 out of 12
Ozone Good
PM2.5 Moderate
Flu Activity Sporadic
METAR KEVV 250754Z AUTO 22004KT 7SM OVC047 13/12 A3003 RMK AO2 SLP168 T01330117

More Conditions Fewer Conditions

10-Day Weather Forecast

Almanac

Astronomy

Oct. 25, 2014 Rise Set
Actual Time 7:08 AM CDT 5:59 PM CDT
Civil Twilight 6:41 AM CDT 6:26 PM CDT
Nautical Twilight 6:11 AM CDT 6:56 PM CDT
Astronomical Twilight 5:40 AM CDT 7:27 PM CDT
Moon 8:46 AM CDT 7:23 PM CDT
Length of Visible Light 11h 44m
Length of Day
10h 50m
Tomorrow will be 2m 15s shorter.
New Moon, 2% of the Moon is Illuminated
Today
New Moon
Oct 30
First Quarter
Nov 6
Full
Nov 14
Last Quarter
Nov 22
New

Today's Extremes

State Highs State Lows

Community

WunderPhotos

Upload Photos

1,764,791 photos uploaded!

Nearby

Air Quality

  Air Quality AQ Index Pollutant
Yesterday Moderate
PM2.5
Yesterday Good
OZONE
Current Moderate
PM2.5
Current Good
OZONE
Saturday Moderate
PM2.5
Sunday Moderate
PM2.5
Monday Moderate
PM2.5

Snow Depth

Station Depth Elevation
No new snow has been reported.

Earthquake Activity

City Distance Mag. Time & Date
No recent earthquake activity has been reported nearby.
Minimum magnitude displayed is 2.5.

Coastal Water Temperatures

Place Temperature
No Stations Reporting

Nearby Weather Stations